• Join FlightAware (Why Join?)
  • Login
  • US Flag 
04:54AM EDT


 

Airport Tracker/Info


-or-


 

Live Flight TrackerFlight Track Log ✈ G-VIIS ✈ 26-Apr-2013 ✈ EGLL / LHR - OBBI / BAH

Flight Track Log - Related Links

Times and Time Zones

All times are in EDT time to prevent confusion due to time zone crossing. See the G-VIIS flight status page for this flight to view local times or setup timezone preferences in your user account.

Time Position Orientation Groundspeed Altitude Reporting Facility
EDT Latitude Longitude Course Direction KTS MPH feet Rate Location/Type
06:11AM 51.4743 -0.5419 297° West 200 230 1,800  Level FlightAware ADS-B
06:11AM 51.4813 -0.5628 298° West 220 253 2,000 960 Climbing FlightAware ADS-B
06:12AM 51.4893 -0.5866 298° West 239 275 2,300 1,500 Climbing FlightAware ADS-B
06:12AM 51.4975 -0.6112 298° West 246 283 2,800 2,220 Climbing FlightAware ADS-B
06:12AM 51.5063 -0.6381 298° West 247 284 3,500 2,520 Climbing FlightAware ADS-B
06:12AM 51.5090 -0.6452 301° West 247 284 3,700 3,000 Climbing FlightAware ADS-B
06:12AM 51.5118 -0.6506 310° West 247 284 3,900 2,520 Climbing FlightAware ADS-B
06:12AM 51.5142 -0.6545 315° West 247 284 4,000 1,680 Climbing FlightAware ADS-B
06:12AM 51.5175 -0.6584 323° Northwest 248 285 4,100 2,220 Climbing FlightAware ADS-B
06:13AM 51.5221 -0.6625 331° Northwest 249 287 4,300 3,000 Climbing FlightAware ADS-B
06:13AM 51.5262 -0.6650 340° North 249 287 4,500 2,220 Climbing FlightAware ADS-B
06:13AM 51.5304 -0.6665 347° North 250 288 4,600 1,980 Climbing FlightAware ADS-B
06:13AM 51.5362 -0.6671 356° North 250 288 4,800 3,000 Climbing FlightAware ADS-B
06:13AM 51.5424 -0.6660 North 252 290 5,100 2,640 Climbing FlightAware ADS-B
06:13AM 51.5471 -0.6641 15° North 254 292 5,200 1,680 Climbing FlightAware ADS-B
06:13AM 51.5504 -0.6620 21° North 256 295 5,300 1,680 Climbing FlightAware ADS-B
06:13AM 51.5540 -0.6590 27° Northeast 259 298 5,400 2,220 Climbing FlightAware ADS-B
06:13AM 51.5579 -0.6551 32° Northeast 262 302 5,600 2,220 Climbing FlightAware ADS-B
06:13AM 51.5622 -0.6502 36° Northeast 264 304 5,700 720 Climbing FlightAware ADS-B
06:13AM 51.5657 -0.6457 39° Northeast 267 307 5,700 840 Level FlightAware ADS-B
06:13AM 51.5685 -0.6417 41° Northeast 269 310 5,800 1,320 Climbing FlightAware ADS-B
06:13AM 51.5741 -0.6319 47° Northeast 273 314 5,900 540 Climbing FlightAware ADS-B
06:13AM 51.5775 -0.6248 53° Northeast 274 315 5,900  Level FlightAware ADS-B
06:14AM 51.5883 -0.5991 56° Northeast 275 316 5,900 180 Level FlightAware ADS-B
06:14AM 51.5993 -0.5723 57° Northeast 273 314 6,000  Climbing FlightAware ADS-B
06:14AM 51.6106 -0.5455 56° Northeast 268 308 5,900 -300 Descending FlightAware ADS-B
06:14AM 51.6160 -0.5327 56° Northeast 268 308 5,900  Level FlightAware ADS-B
06:15AM 51.6243 -0.5109 58° Northeast 271 312 5,900  Level FlightAware ADS-B
06:15AM 51.6301 -0.4935 62° Northeast 269 310 5,900  Level FlightAware ADS-B
06:15AM 51.6389 -0.4652 63° Northeast 268 308 5,900  Level FlightAware ADS-B
06:15AM 51.6476 -0.4378 63° Northeast 271 312 5,900 180 Level FlightAware ADS-B
06:15AM 51.6534 -0.4191 63° Northeast 271 312 6,000 180 Climbing FlightAware ADS-B
06:16AM 51.6628 -0.3892 63° Northeast 271 312 6,000 960 Level FlightAware ADS-B
06:16AM 51.6712 -0.3625 63° Northeast 273 314 6,500 2,160 Climbing FlightAware ADS-B
06:16AM 51.6800 -0.3344 63° Northeast 276 318 7,100 2,280 Climbing FlightAware ADS-B
06:16AM 51.6891 -0.3053 63° Northeast 280 322 7,700 2,100 Climbing FlightAware ADS-B
06:17AM 51.6978 -0.2769 64° Northeast 281 323 8,200 2,100 Climbing FlightAware ADS-B
06:17AM 51.7066 -0.2479 64° Northeast 283 326 8,800 1,920 Climbing FlightAware ADS-B
06:17AM 51.7176 -0.2125 63° Northeast 288 331 9,300 1,560 Climbing FlightAware ADS-B
06:18AM 51.7268 -0.1825 64° Northeast 293 337 9,700 -1,080 Climbing FlightAware ADS-B
06:18AM 51.7382 -0.1451 64° Northeast 282 325 8,700 1,440 Descending FlightAware UK
06:18AM 51.7424 -0.1309 64° Northeast 310 357 10,300 5,280 Climbing FlightAware ADS-B
06:18AM 51.7481 -0.1067 69° East 322 371 10,300 300 Level FlightAware ADS-B
06:18AM 51.7508 -0.0897 76° East 329 379 10,400 -2,040 Climbing FlightAware ADS-B
06:19AM 51.7564 -0.0323 76° East 322 371 9,300 1,320 Descending FlightAware UK
06:19AM 51.7581 -0.0114 76° East 352 405 11,100 4,080 Climbing FlightAware ADS-B
06:19AM 51.7650 0.0751 83° East 366 421 12,100 180 Climbing FlightAware ADS-B
06:20AM 51.7692 0.1289 83° East 340 391 11,300 2,460 Descending FlightAware UK
06:20AM 51.7719 0.1608 83° East 378 435 13,400 2,400 Climbing FlightAware ADS-B
06:20AM 51.7761 0.2131 83° East 346 398 12,500 2,100 Descending FlightAware UK
06:20AM 51.7790 0.2492 83° East 388 447 14,500 1,740 Climbing FlightAware ADS-B
06:21AM 51.7832 0.3008 83° East 350 403 13,400 1,740 Descending FlightAware UK
06:21AM 51.7878 0.3580 83° East 404 465 15,600 2,100 Climbing FlightAware ADS-B
06:21AM 51.7934 0.4266 83° East 360 414 14,900 2,220 Descending FlightAware UK
06:22AM 51.7955 0.4544 83° East 415 478 16,800 2,220 Climbing FlightAware ADS-B
06:22AM 51.7992 0.5002 83° East 368 423 15,800 2,400 Descending FlightAware UK
06:22AM 51.8035 0.5543 83° East 423 487 18,100 4,020 Climbing FlightAware ADS-B
06:23AM 51.8115 0.6547 83° East 436 502 19,100 1,980 Climbing FlightAware ADS-B
06:23AM 51.8168 0.7052 80° East 443 510 19,700 -540 Climbing FlightAware ADS-B
06:23AM 51.8255 0.7696 80° East 384 442 18,800 2,040 Descending FlightAware UK
06:23AM 51.8323 0.8102 80° East 453 521 20,800 2,400 Climbing FlightAware ADS-B
06:24AM 51.8416 0.8674 80° East 392 451 20,000 2,160 Descending FlightAware UK
06:24AM 51.8504 0.9169 80° East 459 528 22,000 1,620 Climbing FlightAware ADS-B
06:24AM 51.8623 0.9863 80° East 394 453 21,000 1,800 Descending FlightAware UK
06:24AM 51.8702 1.0306 80° East 472 543 23,000 4,080 Climbing FlightAware ADS-B
06:25AM 51.8882 1.1335 74° East 477 549 24,000 -180 Climbing FlightAware ADS-B
06:25AM 51.8982 1.1918 74° East 406 467 22,900 -420 Descending FlightAware UK
06:26AM 51.9165 1.2971 74° East 412 474 23,700 4,440 Climbing FlightAware UK
06:26AM 51.9150 1.2900 74° East 491 565 25,200 1,620 Climbing FlightAware
06:26AM 51.9274 1.3611 74° East 416 479 24,200 1,440 Descending FlightAware UK
06:27AM 51.9410 1.4370 74° East 502 578 26,300 1,620 Climbing FlightAware
06:27AM 51.9572 1.5353 74° East 428 493 25,500 2,040 Descending FlightAware UK
06:27AM 51.9719 1.6216 74° East 501 577 27,800 1,800 Climbing FlightAware ADS-B
06:28AM 51.9834 1.6899 74° East 436 502 26,800 1,680 Descending FlightAware UK
06:28AM 51.9953 1.7601 74° East 514 592 28,900 1,500 Climbing FlightAware ADS-B
06:28AM 52.0058 1.8238 74° East 438 504 27,700 1,320 Descending FlightAware UK
06:28AM 52.0172 1.8914 74° East 519 597 29,700 1,380 Climbing FlightAware ADS-B
06:29AM 52.0324 1.9831 74° East 448 516 28,700 1,500 Descending FlightAware UK
06:29AM 52.0379 2.0162 74° East 526 605 30,500 1,500 Climbing FlightAware ADS-B
06:29AM 52.0476 2.0758 74° East 454 522 29,300 -1,320 Descending FlightAware UK
06:30AM 52.0590 2.1452 75° East 456 525 29,800 1,500 Climbing FlightAware UK
06:30AM 52.0705 2.2147 75° East 456 525 30,200 4,920 Climbing FlightAware UK
06:30AM 52.0700 2.2110 75° East 537 618 31,700 960 Climbing FlightAware
06:30AM 52.0894 2.3322 75° East 462 532 30,700 1,200 Descending FlightAware UK
06:31AM 52.1000 2.3960 75° East 547 629 32,600 1,140 Climbing FlightAware
06:31AM 52.1111 2.4762 75° East 468 539 31,400 -900 Descending FlightAware UK
06:31AM 52.1189 2.5734 83° East 476 548 32,000 5,220 Climbing FlightAware UK
06:31AM 52.1180 2.5620 83° East 546 628 33,500 1,560 Climbing FlightAware
06:32AM 52.1262 2.6470 83° East 476 548 32,500 -1,020 Descending FlightAware UK
06:32AM 52.1329 2.7198 81° East 478 550 32,900 4,560 Climbing FlightAware UK
06:32AM 52.1330 2.7250 81° East 543 625 34,500 4,020 Climbing FlightAware
06:33AM 52.1410 2.8860 85° East 534 615 35,800 420 Climbing FlightAware
06:33AM 52.1459 3.0082 85° East 472 543 35,000 1,200 Descending FlightAware UK
06:34AM 52.1470 3.0810 85° East 528 608 36,800 660 Climbing FlightAware
06:34AM 52.1502 3.1745 85° East 472 543 35,500 -1,860 Descending FlightAware UK
06:34AM 52.1516 3.2465 88° East 480 552 35,600 5,040 Climbing FlightAware UK
06:34AM 52.1510 3.2390 88° East 539 620 37,100 600 Climbing FlightAware
06:35AM 52.1537 3.3696 88° East 486 559 35,900 780 Descending FlightAware UK
06:35AM 52.1540 3.4270 88° East 545 627 37,700 1,140 Climbing FlightAware
06:35AM 52.1559 3.5175 88° East 492 566 36,600 -960 Descending FlightAware UK
06:36AM 52.1570 3.5905 89° East 492 566 37,100 6,000 Climbing FlightAware UK
06:36AM 52.1570 3.5800 89° East 537 618 38,600 660 Climbing FlightAware
06:36AM 52.1587 3.7344 89° East 486 559 37,500 600 Descending FlightAware UK
06:36AM 52.1590 3.7480 89° East 532 612 39,000  Climbing FlightAware
06:37AM 52.1603 3.8777 89° East 488 562 37,500  Descending FlightAware UK
06:37AM 52.1610 3.9330 89° East 531 611 39,000  Climbing FlightAware
06:38AM 52.1632 4.0930 89° East 488 562 37,500  Descending FlightAware UK
06:38AM 52.1630 4.0930 89° East 530 610 39,000  Climbing FlightAware
06:38AM 52.1643 4.1884 89° East 484 557 37,500  Descending FlightAware UK
06:38AM 52.1650 4.2660 89° East 530 610 39,000  Climbing FlightAware
06:39AM 52.1661 4.3554 89° East 484 557 37,500 -2,400 Descending FlightAware UK
06:39AM 52.1667 4.4269 89° East 486 559 37,500 4,500 Level FlightAware UK
06:39AM 52.1660 4.4240 89° East 530 610 39,000  Climbing FlightAware
06:40AM 52.1681 4.5709 89° East 484 557 37,500  Descending FlightAware UK
06:40AM 52.1670 4.5850 89° East 532 612 39,000  Climbing FlightAware
06:40AM 52.1680 4.7143 89° East 484 557 37,500  Descending FlightAware UK
06:41AM 52.1680 4.7600 89° East 533 613 39,000  Climbing FlightAware
06:41AM 52.1676 4.8338 89° East 482 555 37,500 -2,760 Descending FlightAware UK
06:41AM 52.1669 4.9054 91° East 484 557 37,500 3,600 Level FlightAware UK
06:41AM 52.1690 4.9200 91° East 537 618 39,000 1,680 Climbing FlightAware
06:42AM 52.1700 5.1020 89° East 537 618 39,000  Level FlightAware
06:43AM 52.1700 5.2640 90° East 537 618 39,000  Level FlightAware
06:43AM 52.1700 5.4270 90° East 536 617 39,000 -1,560 Level FlightAware
06:44AM 52.1687 5.5106 90° East 490 564 37,500 -2,520 Descending FlightAware UK
06:44AM 52.1684 5.5827 90° East 488 562 37,500 3,300 Level FlightAware UK
06:44AM 52.1700 5.6050 90° East 534 615 39,000  Climbing FlightAware
06:44AM 52.1692 5.6796 90° East 488 562 37,500 -2,760 Descending FlightAware UK
06:45AM 52.1693 5.7528 90° East 490 564 37,500 3,600 Level FlightAware UK
06:45AM 52.1690 5.7640 90° East 534 615 39,000  Climbing FlightAware
06:45AM 52.1697 5.8494 90° East 1 1 37,500  Descending FlightAware UK
06:45AM 52.1690 5.9280 90° East 531 611 39,000 1,320 Climbing FlightAware
06:46AM 52.1680 6.1010 90° East 525 604 39,000  Level FlightAware
06:47AM 52.1670 6.2630 91° East 526 605 39,000  Level FlightAware
06:48AM 52.1650 6.4460 91° East 531 611 39,000  Level FlightAware
06:48AM 52.1640 6.6030 91° East 532 612 39,000  Level FlightAware
06:49AM 52.1620 6.7700 91° East 534 615 39,000  Level FlightAware
06:50AM 52.1600 6.9500 91° East 535 616 39,000  Level FlightAware
06:50AM 52.1570 7.1190 92° East 533 613 39,000  Level FlightAware
06:51AM 52.1550 7.2720 91° East 530 610 39,000  Level FlightAware
06:52AM 52.1520 7.4340 92° East 527 606 39,000  Level FlightAware
06:52AM 52.1490 7.6170 91° East 526 605 39,000  Level FlightAware
06:53AM 52.1450 7.7960 92° East 522 601 39,000  Level FlightAware
06:54AM 52.1420 7.9500 92° East 520 598 39,000  Level FlightAware
06:55AM 52.1380 8.1100 92° East 522 601 39,000  Level FlightAware
06:55AM 52.1340 8.2880 92° East 524 603 39,000  Level FlightAware
06:56AM 52.1300 8.4440 92° East 524 603 39,000  Level FlightAware
06:57AM 52.1250 8.6180 93° East 519 597 39,000  Level FlightAware
06:57AM 52.1210 8.7610 93° East 518 596 39,000  Level FlightAware
06:58AM 52.1170 8.9270 92° East 516 594 39,000  Level FlightAware
06:59AM 52.1120 9.0820 93° East 516 594 39,000  Level FlightAware
06:59AM 52.1070 9.2370 93° East 520 598 39,000  Level FlightAware
07:00AM 52.1010 9.4140 93° East 521 600 39,000  Level FlightAware
07:01AM 52.0950 9.5870 93° East 526 605 39,000  Level FlightAware
07:02AM 52.0840 9.8690 94° East 526 605 39,000  Level FlightAware
07:03AM 52.0780 10.0290 93° East 526 605 39,000  Level FlightAware
07:03AM 52.0710 10.2020 94° East 527 606 39,000  Level FlightAware
07:04AM 52.0650 10.3460 94° East 527 606 39,000  Level FlightAware
07:05AM 52.0580 10.5150 94° East 526 605 39,000  Level FlightAware
07:06AM 52.0510 10.6790 94° East 523 602 39,000  Level FlightAware
07:06AM 52.0430 10.8410 95° East 522 601 39,000  Level FlightAware
07:07AM 52.0340 11.0270 94° East 523 602 39,000  Level FlightAware
07:08AM 52.0270 11.1800 94° East 523 602 39,000  Level FlightAware
07:08AM 52.0190 11.3380 95° East 523 602 39,000  Level FlightAware
07:09AM 52.0100 11.5170 95° East 523 602 39,000  Level FlightAware
07:10AM 52.0020 11.6710 95° East 522 601 39,000  Level FlightAware
07:10AM 51.9880 11.8250 98° East 519 597 39,000  Level FlightAware
07:11AM 51.9620 11.9920 104° East 516 594 39,000  Level FlightAware
07:12AM 51.9320 12.1630 106° East 515 593 39,000  Level FlightAware
07:13AM 51.9060 12.3120 106° East 514 592 39,000  Level FlightAware
07:13AM 51.8800 12.4590 106° East 512 589 39,000  Level FlightAware
07:14AM 51.8550 12.6010 106° East 513 590 39,000  Level FlightAware
07:15AM 51.8260 12.7640 106° East 513 590 39,000  Level FlightAware
07:15AM 51.7990 12.9120 106° East 513 590 39,000  Level FlightAware
07:16AM 51.7680 13.0820 106° East 514 592 39,000  Level FlightAware
07:17AM 51.7410 13.2290 106° East 513 590 39,000  Level FlightAware
07:17AM 51.7110 13.3910 107° East 514 592 39,000  Level FlightAware
07:18AM 51.6840 13.5340 107° East 514 592 39,000  Level FlightAware
07:19AM 51.6590 13.6670 107° East 513 590 39,000  Level FlightAware
07:20AM 51.6270 13.8390 107° East 512 589 39,000  Level FlightAware
07:21AM 51.5790 14.0880 107° East 508 585 39,000  Level FlightAware
07:21AM 51.5490 14.2430 107° East 507 583 39,000  Level FlightAware
07:22AM 51.5180 14.4030 107° East 510 587 39,000  Level FlightAware
07:23AM 51.4900 14.5470 107° East 511 588 39,000  Level FlightAware
07:23AM 51.4650 14.6710 108° East 512 589 39,000  Level FlightAware
07:24AM 51.4290 14.8530 108° East 511 588 39,000  Level FlightAware
07:25AM 51.3990 15.0000 108° East 511 588 39,000  Level FlightAware
07:25AM 51.3740 15.1210 108° East 512 589 39,000  Level FlightAware
07:26AM 51.3380 15.2910 109° East 512 589 39,000  Level FlightAware
07:27AM 51.3080 15.4350 108° East 513 590 39,000  Level FlightAware
07:28AM 51.2720 15.6060 109° East 513 590 39,000  Level FlightAware
07:28AM 51.2410 15.7480 109° East 513 590 39,000  Level FlightAware
07:29AM 51.2090 15.8970 109° East 513 590 39,000  Level FlightAware
07:30AM 51.1750 16.0550 109° East 512 589 39,000  Level FlightAware
07:30AM 51.1440 16.1960 109° East 512 589 39,000  Level FlightAware
07:31AM 51.1100 16.3530 109° East 512 589 39,000  Level FlightAware
07:32AM 51.0770 16.4990 110° East 512 589 39,000  Level FlightAware
07:33AM 51.0470 16.6380 109° East 511 588 39,000  Level FlightAware
07:33AM 51.0150 16.7920 108° East 509 586 39,000  Level FlightAware
07:34AM 50.9850 16.9330 109° East 508 585 39,000  Level FlightAware
07:35AM 50.9500 17.0920 109° East 508 585 39,000  Level FlightAware
07:35AM 50.9180 17.2380 109° East 508 585 39,000  Level FlightAware
07:36AM 50.8880 17.3750 109° East 508 585 39,000  Level FlightAware
07:37AM 50.8530 17.5300 110° East 508 585 39,000  Level FlightAware
07:37AM 50.8220 17.6710 109° East 510 587 39,000  Level FlightAware
07:38AM 50.7860 17.8300 110° East 511 588 39,000  Level FlightAware
07:39AM 50.7530 17.9730 110° East 512 589 39,000  Level FlightAware
07:40AM 50.7210 18.1190 109° East 513 590 39,000  Level FlightAware
07:40AM 50.6860 18.2660 111° Southeast 509 586 39,000  Level FlightAware
07:41AM 50.6530 18.3960 112° Southeast 507 583 39,000  Level FlightAware
07:42AM 50.6220 18.5220 111° Southeast 508 585 39,000  Level FlightAware
07:42AM 50.5800 18.6940 111° Southeast 505 581 39,000  Level FlightAware
07:43AM 50.5460 18.8290 112° Southeast 506 582 39,000  Level FlightAware
07:44AM 50.5060 18.9880 112° Southeast 506 582 39,000  Level FlightAware
07:44AM 50.4740 19.1140 112° Southeast 507 583 39,000  Level FlightAware
07:45AM 50.4330 19.2760 112° Southeast 509 586 39,000  Level FlightAware
07:46AM 50.3980 19.4120 112° Southeast 509 586 39,000  Level FlightAware
07:47AM 50.3640 19.5470 111° Southeast 510 587 39,000  Level FlightAware
07:47AM 50.3220 19.7100 112° Southeast 510 587 39,000  Level FlightAware
07:48AM 50.2880 19.8390 112° Southeast 509 586 39,000  Level FlightAware
07:49AM 50.2490 19.9850 113° Southeast 509 586 39,000  Level FlightAware
07:49AM 50.2130 20.1250 112° Southeast 509 586 39,000  Level FlightAware
07:50AM 50.1740 20.2690 113° Southeast 511 588 39,000  Level FlightAware
07:51AM 50.1350 20.4180 112° Southeast 509 586 39,000  Level FlightAware
07:51AM 50.1010 20.5440 113° Southeast 509 586 39,000  Level FlightAware
07:52AM 50.0590 20.6990 113° Southeast 510 587 39,000  Level FlightAware
07:53AM 50.0220 20.8340 113° Southeast 510 587 39,000  Level FlightAware
07:54AM 49.9860 20.9680 113° Southeast 511 588 39,000  Level FlightAware
07:54AM 49.9420 21.1250 113° Southeast 514 592 39,000  Level FlightAware
07:55AM 49.9030 21.2650 113° Southeast 514 592 39,000  Level FlightAware
07:56AM 49.8620 21.4140 113° Southeast 514 592 39,000  Level FlightAware
07:56AM 49.8230 21.5500 114° Southeast 514 592 39,000  Level FlightAware
07:57AM 49.7850 21.6850 114° Southeast 515 593 39,000  Level FlightAware
07:58AM 49.7420 21.8380 113° Southeast 516 594 39,000  Level FlightAware
07:58AM 49.7020 21.9760 114° Southeast 517 595 39,000  Level FlightAware
07:59AM 49.6610 22.1210 114° Southeast 517 595 39,000  Level FlightAware
08:00AM 49.6220 22.2560 114° Southeast 519 597 39,000  Level FlightAware
08:01AM 49.5830 22.3910 114° Southeast 519 597 39,000  Level FlightAware
08:01AM 49.5380 22.5440 114° Southeast 518 596 39,000  Level FlightAware
08:02AM 49.4980 22.6790 114° Southeast 519 597 39,000  Level FlightAware
08:03AM 49.4560 22.8210 114° Southeast 518 596 39,000  Level FlightAware
08:03AM 49.4160 22.9560 114° Southeast 518 596 39,000  Level FlightAware
08:04AM 49.3770 23.0900 114° Southeast 517 595 39,000  Level FlightAware
08:05AM 49.3300 23.2470 115° Southeast 518 596 39,000  Level FlightAware
08:05AM 49.2890 23.3820 115° Southeast 518 596 39,000  Level FlightAware
08:06AM 49.2460 23.5250 115° Southeast 518 596 39,000  Level FlightAware
08:07AM 49.2060 23.6570 115° Southeast 516 594 39,000  Level FlightAware
08:08AM 49.1490 23.8420 115° Southeast 516 594 39,000  Level FlightAware
08:09AM 49.1060 23.9820 115° Southeast 516 594 39,000  Level FlightAware
08:09AM 49.0640 24.1200 115° Southeast 518 596 39,000  Level FlightAware
08:10AM 49.0230 24.2520 115° Southeast 518 596 39,000  Level FlightAware
08:10AM 48.9890 24.3600 116° Southeast 520 598 39,000  Level FlightAware
08:11AM 48.9410 24.5130 115° Southeast 520 598 39,000  Level FlightAware
08:12AM 48.8830 24.7060 114° Southeast 521 600 39,000  Level FlightAware
08:13AM 48.8470 24.8680 109° East 520 598 39,000  Level FlightAware
08:14AM 48.8180 25.0030 108° East 521 600 39,000  Level FlightAware
08:14AM 48.7880 25.1470 107° East 521 600 39,000  Level FlightAware
08:15AM 48.7540 25.3040 108° East 521 600 39,000  Level FlightAware
08:16AM 48.7240 25.4420 108° East 522 601 39,000  Level FlightAware
08:16AM 48.6900 25.5970 108° East 522 601 39,000  Level FlightAware
08:17AM 48.6590 25.7390 108° East 523 602 39,000  Level FlightAware
08:18AM 48.6280 25.8790 108° East 523 602 39,000  Level FlightAware
08:19AM 48.5930 26.0340 109° East 524 603 39,000  Level FlightAware
08:19AM 48.5630 26.1660 109° East 524 603 39,000  Level FlightAware
08:20AM 48.5270 26.3270 109° East 524 603 39,000  Level FlightAware
08:21AM 48.4950 26.4640 109° East 524 603 39,000  Level FlightAware
08:21AM 48.4640 26.6020 109° East 524 603 39,000  Level FlightAware
08:22AM 48.4260 26.7580 110° East 523 602 39,000  Level FlightAware
08:23AM 48.3730 26.8740 124° Southeast 524 603 39,000  Level FlightAware
08:23AM 48.2940 26.9920 135° Southeast 523 602 39,000  Level FlightAware
08:24AM 48.2250 27.0900 137° Southeast 522 601 39,000  Level FlightAware
08:25AM 48.1550 27.1910 136° Southeast 523 602 39,000 480 Level FlightAware
08:26AM 48.0780 27.3010 136° Southeast 521 600 39,700 840 Climbing FlightAware
08:26AM 48.0080 27.4010 136° Southeast 522 601 40,200 780 Climbing FlightAware
08:27AM 47.9400 27.4980 136° Southeast 519 597 40,800 540 Climbing FlightAware
08:28AM 47.8600 27.6130 136° Southeast 515 593 41,000 120 Climbing FlightAware
08:28AM 47.7910 27.7100 137° Southeast 515 593 41,000  Level FlightAware
08:29AM 47.7150 27.8180 136° Southeast 514 592 41,000  Level FlightAware
08:30AM 47.6470 27.9130 137° Southeast 513 590 41,000  Level FlightAware
08:30AM 47.5690 28.0230 136° Southeast 514 592 41,000  Level FlightAware
08:31AM 47.4990 28.1200 137° Southeast 514 592 41,000  Level FlightAware
08:32AM 47.4290 28.2170 137° Southeast 515 593 41,000  Level FlightAware
08:33AM 47.3520 28.3240 137° Southeast 516 594 41,000  Level FlightAware
08:33AM 47.2990 28.3960 137° Southeast 509 586 41,000  Level FlightAware
08:34AM 47.2070 28.5230 137° Southeast 510 587 41,000  Level FlightAware
08:35AM 47.1350 28.6220 137° Southeast 510 587 41,000  Level FlightAware
08:35AM 47.0680 28.7130 137° Southeast 510 587 41,000  Level FlightAware
08:36AM 46.9870 28.8230 137° Southeast 511 588 41,000  Level FlightAware
08:37AM 46.9160 28.9180 138° Southeast 511 588 41,000  Level FlightAware
08:37AM 46.8430 29.0210 136° Southeast 517 595 41,000  Level FlightAware
08:38AM 46.7710 29.1230 136° Southeast 517 595 41,000  Level FlightAware
08:39AM 46.7040 29.2190 135° Southeast 518 596 41,000  Level FlightAware
08:40AM 46.6260 29.3280 136° Southeast 517 595 41,000  Level FlightAware
08:40AM 46.5480 29.4360 136° Southeast 517 595 41,000  Level FlightAware
08:41AM 46.4800 29.5310 136° Southeast 517 595 41,000  Level FlightAware
08:42AM 46.4170 29.6180 136° Southeast 517 595 41,000  Level FlightAware
08:42AM 46.3320 29.7350 136° Southeast 519 597 41,000  Level FlightAware
08:43AM 46.2630 29.8250 138° Southeast 519 597 41,000  Level FlightAware
08:44AM 46.1860 29.9250 138° Southeast 518 596 41,000  Level FlightAware
08:44AM 46.1200 30.0110 138° Southeast 517 595 41,000  Level FlightAware
08:45AM 46.0410 30.1150 138° Southeast 516 594 41,000  Level FlightAware
08:46AM 45.9610 30.2180 138° Southeast 517 595 41,000  Level FlightAware
08:47AM 45.8910 30.3090 138° Southeast 519 597 41,000  Level FlightAware
08:47AM 45.8090 30.4140 138° Southeast 520 598 41,000  Level FlightAware
08:48AM 45.7370 30.5060 138° Southeast 521 600 41,000  Level FlightAware
08:49AM 45.6380 30.6330 138° Southeast 521 600 41,000  Level FlightAware
08:50AM 45.5630 30.7290 138° Southeast 521 600 41,000  Level FlightAware
08:50AM 45.4990 30.8100 138° Southeast 519 597 41,000  Level FlightAware
08:51AM 45.4170 30.9130 139° Southeast 518 596 41,000  Level FlightAware
08:52AM 45.3370 31.0130 139° Southeast 517 595 41,000  Level FlightAware
08:52AM 45.2650 31.1030 139° Southeast 518 596 41,000  Level FlightAware
08:53AM 45.1940 31.1940 138° Southeast 518 596 41,000  Level FlightAware
08:54AM 45.1140 31.2980 137° Southeast 518 596 41,000  Level FlightAware
08:54AM 45.0430 31.3890 138° Southeast 518 596 41,000  Level FlightAware
08:55AM 44.9640 31.4890 138° Southeast 519 597 41,000  Level FlightAware
08:56AM 44.8940 31.5790 138° Southeast 519 597 41,000  Level FlightAware
08:57AM 44.8120 31.6820 138° Southeast 517 595 41,000  Level FlightAware
08:57AM 44.7420 31.7710 138° Southeast 517 595 41,000  Level FlightAware
08:58AM 44.6690 31.8620 138° Southeast 516 594 41,000  Level FlightAware
08:59AM 44.5920 31.9590 138° Southeast 517 595 41,000  Level FlightAware
08:59AM 44.5180 32.0510 138° Southeast 518 596 41,000  Level FlightAware
09:00AM 44.4450 32.1380 140° Southeast 520 598 41,000  Level FlightAware
09:01AM 44.3630 32.2340 140° Southeast 520 598 41,000  Level FlightAware
09:01AM 44.2890 32.3220 140° Southeast 518 596 41,000  Level FlightAware
09:02AM 44.2070 32.4180 140° Southeast 517 595 41,000  Level FlightAware
09:03AM 44.1330 32.5050 140° Southeast 516 594 41,000  Level FlightAware
09:04AM 44.0530 32.6020 139° Southeast 515 593 41,000  Level FlightAware
09:04AM 43.9820 32.6880 139° Southeast 516 594 41,000  Level FlightAware
09:05AM 43.9090 32.7750 139° Southeast 516 594 41,000  Level FlightAware
09:06AM 43.8290 32.8720 139° Southeast 516 594 41,000  Level FlightAware
09:06AM 43.7560 32.9580 140° Southeast 516 594 41,000  Level FlightAware
09:07AM 43.6750 33.0540 139° Southeast 519 597 41,000  Level FlightAware
09:08AM 43.6010 33.1420 139° Southeast 520 598 41,000  Level FlightAware
09:08AM 43.5280 33.2270 140° Southeast 520 598 41,000  Level FlightAware
09:09AM 43.4560 33.3110 140° Southeast 520 598 41,000  Level FlightAware
09:10AM 43.3720 33.4090 140° Southeast 518 596 41,000  Level FlightAware
09:11AM 43.3010 33.4920 140° Southeast 517 595 41,000  Level FlightAware
09:11AM 43.2170 33.5880 140° Southeast 517 595 41,000  Level FlightAware
09:12AM 43.1440 33.6730 140° Southeast 515 593 41,000  Level FlightAware
09:13AM 43.0710 33.7560 140° Southeast 515 593 41,000  Level FlightAware
09:13AM 43.0020 33.8360 140° Southeast 514 592 41,000  Level FlightAware
09:14AM 42.9300 33.9180 140° Southeast 513 590 41,000  Level FlightAware
09:15AM 42.8220 34.0410 140° Southeast 513 590 41,000  Level FlightAware
09:16AM 42.7540 34.1240 138° Southeast 513 590 41,000  Level FlightAware
09:16AM 42.6830 34.2170 136° Southeast 513 590 41,000  Level FlightAware
09:19AM 42.4880 34.4766 135° Southeast  Level Estimated
09:20AM 42.3964 34.5977 136° Southeast  Level Estimated
09:21AM 42.3047 34.7184 136° Southeast  Level Estimated
09:21AM 42.2300 34.8100 136° Southeast 510 587 41,000  Level FlightAware
09:21AM 42.1610 34.8990 136° Southeast 511 588 41,000  Level FlightAware
09:23AM 42.0040 35.1110 135° Southeast 509 586 41,000  Level FlightAware
09:24AM 41.9500 35.1910 132° Southeast 509 586 41,000  Level FlightAware
09:24AM 41.8970 35.2710 132° Southeast 509 586 41,000  Level FlightAware
09:25AM 41.8430 35.3510 132° Southeast 509 586 41,000  Level FlightAware
09:26AM 41.7900 35.4300 132° Southeast 509 586 41,000  Level FlightAware
09:26AM 41.7230 35.5300 132° Southeast 509 586 41,000  Level FlightAware
09:27AM 41.6690 35.6100 132° Southeast 509 586 41,000  Level FlightAware
09:28AM 41.6150 35.6890 132° Southeast 509 586 41,000  Level FlightAware
09:28AM 41.5620 35.7690 132° Southeast 509 586 41,000  Level FlightAware
09:29AM 41.5080 35.8480 132° Southeast 509 586 41,000  Level FlightAware
09:30AM 41.4410 35.9480 132° Southeast 509 586 41,000  Level FlightAware
09:31AM 41.3880 36.0270 132° Southeast 509 586 41,000  Level FlightAware
09:31AM 41.3340 36.1060 132° Southeast 509 586 41,000  Level FlightAware
09:32AM 41.2810 36.1850 132° Southeast 509 586 41,000  Level FlightAware
09:35AM 41.0418 36.4799 137° Southeast  Level Estimated
09:36AM 40.9478 36.5949 137° Southeast  Level Estimated
09:37AM 40.8536 36.7096 137° Southeast  Level Estimated
09:38AM 40.7594 36.8240 137° Southeast  Level Estimated
09:39AM 40.6651 36.9381 137° Southeast  Level Estimated
09:40AM 40.5706 37.0518 138° Southeast  Level Estimated
09:41AM 40.4760 37.1653 138° Southeast  Level Estimated
09:42AM 40.3813 37.2784 138° Southeast  Level Estimated
09:43AM 40.2865 37.3912 138° Southeast  Level Estimated
09:44AM 40.1916 37.5036 138° Southeast  Level Estimated
09:45AM 40.0966 37.6158 138° Southeast  Level Estimated
09:46AM 40.0015 37.7276 138° Southeast  Level Estimated
09:47AM 39.9063 37.8392 138° Southeast  Level Estimated
09:48AM 39.8109 37.9504 138° Southeast  Level Estimated
09:49AM 39.7155 38.0613 138° Southeast  Level Estimated
09:50AM 39.6199 38.1719 138° Southeast  Level Estimated
09:51AM 39.5243 38.2822 138° Southeast  Level Estimated
09:52AM 39.4285 38.3922 138° Southeast  Level Estimated
09:53AM 39.3327 38.5019 138° Southeast  Level Estimated
09:54AM 39.2367 38.6113 139° Southeast  Level Estimated
09:55AM 39.1406 38.7204 139° Southeast  Level Estimated
09:56AM 39.0445 38.8292 139° Southeast  Level Estimated
09:57AM 38.9482 38.9377 139° Southeast  Level Estimated
09:58AM 38.8518 39.0460 139° Southeast  Level Estimated
09:59AM 38.7554 39.1539 139° Southeast  Level Estimated
10:00AM 38.6588 39.2615 139° Southeast  Level Estimated
10:01AM 38.5621 39.3688 139° Southeast  Level Estimated
10:02AM 38.4654 39.4759 139° Southeast  Level Estimated
10:03AM 38.3685 39.5826 139° Southeast  Level Estimated
10:04AM 38.2716 39.6891 139° Southeast  Level Estimated
10:05AM 38.1745 39.7953 139° Southeast  Level Estimated
10:06AM 38.0774 39.9012 139° Southeast  Level Estimated
10:07AM 37.9801 40.0069 139° Southeast  Level Estimated
10:07AM 38.3410 41.8430 139° Southeast 514 592 41,000  Level FlightAware
10:08AM 37.8828 40.1122 139° Southeast  Level Estimated
10:08AM 38.2890 41.9320 127° Southeast 513 590 41,000  Level FlightAware
10:09AM 38.2260 42.0390 127° Southeast 513 590 41,000  Level FlightAware
10:09AM 38.1690 42.1370 126° Southeast 511 588 41,000  Level FlightAware
10:10AM 38.1060 42.2440 127° Southeast 510 587 41,000  Level FlightAware
10:11AM 38.0480 42.3420 127° Southeast 511 588 41,000  Level FlightAware
10:12AM 37.9910 42.4380 127° Southeast 510 587 41,000  Level FlightAware
10:12AM 37.9290 42.5430 127° Southeast 510 587 41,000  Level FlightAware
10:13AM 37.8710 42.6370 128° Southeast 511 588 41,000  Level FlightAware
10:14AM 37.7940 42.7320 136° Southeast 514 592 41,000  Level FlightAware
10:14AM 37.7220 42.8120 139° Southeast 513 590 41,000  Level FlightAware
10:15AM 37.6500 42.8910 139° Southeast 513 590 41,000  Level FlightAware
10:16AM 37.5700 42.9770 140° Southeast 518 596 41,000  Level FlightAware
10:16AM 37.4980 43.0550 139° Southeast 517 595 41,000  Level FlightAware
10:17AM 37.4150 43.1460 139° Southeast 516 594 41,000  Level FlightAware
10:18AM 37.3380 43.2190 143° Southeast 517 595 41,000  Level FlightAware
10:19AM 37.2540 43.2710 154° Southeast 515 593 41,000  Level FlightAware
10:19AM 37.1580 43.3250 156° South 509 586 41,000  Level FlightAware
10:20AM 37.0720 43.3740 156° South 503 579 41,000  Level FlightAware
10:21AM 36.9760 43.4280 156° South 501 577 41,000  Level FlightAware
10:21AM 36.8930 43.4740 156° South 503 579 41,000  Level FlightAware
10:22AM 36.8080 43.5210 156° South 504 580 41,000  Level FlightAware
10:23AM 36.7110 43.5750 156° South 502 578 41,000  Level FlightAware
10:23AM 36.6250 43.6200 157° South 502 578 41,000  Level FlightAware
10:24AM 36.5270 43.6700 158° South 503 579 41,000  Level FlightAware
10:25AM 36.4410 43.7150 157° South 504 580 41,000  Level FlightAware
10:26AM 36.3580 43.7580 157° South 505 581 41,000  Level FlightAware
10:26AM 36.2600 43.8080 158° South 505 581 41,000  Level FlightAware
10:27AM 36.1740 43.8540 157° South 504 580 41,000  Level FlightAware
10:28AM 36.0790 43.9040 157° South 504 580 41,000  Level FlightAware
10:28AM 35.9900 43.9510 157° South 506 582 41,000  Level FlightAware
10:29AM 35.9020 43.9970 157° South 507 583 41,000  Level FlightAware
10:30AM 35.8080 44.0460 157° South 508 585 41,000  Level FlightAware
10:30AM 35.7200 44.0910 157° South 508 585 41,000  Level FlightAware
10:31AM 35.6340 44.1410 155° Southeast 511 588 41,000  Level FlightAware
10:32AM 35.5430 44.2020 151° Southeast 513 590 41,000  Level FlightAware
10:33AM 35.4570 44.2610 151° Southeast 514 592 41,000  Level FlightAware
10:33AM 35.3650 44.3250 150° Southeast 514 592 41,000  Level FlightAware
10:34AM 35.2810 44.3830 151° Southeast 515 593 41,000  Level FlightAware
10:35AM 35.1870 44.4490 150° Southeast 516 594 41,000  Level FlightAware
10:35AM 35.1040 44.5060 151° Southeast 515 593 41,000  Level FlightAware
10:36AM 35.0250 44.5610 150° Southeast 516 594 41,000  Level FlightAware
10:37AM 34.9290 44.6260 151° Southeast 516 594 41,000  Level FlightAware
10:37AM 34.8450 44.6830 151° Southeast 514 592 41,000  Level FlightAware
10:38AM 34.7510 44.7470 151° Southeast 514 592 41,000  Level FlightAware
10:39AM 34.6690 44.8030 151° Southeast 514 592 41,000  Level FlightAware
10:40AM 34.5750 44.8660 151° Southeast 513 590 41,000  Level FlightAware
10:40AM 34.4940 44.9210 151° Southeast 515 593 41,000  Level FlightAware
10:41AM 34.4100 44.9780 151° Southeast 516 594 41,000  Level FlightAware
10:42AM 34.3140 45.0420 151° Southeast 517 595 41,000  Level FlightAware
10:42AM 34.2480 45.0870 151° Southeast 518 596 41,000  Level FlightAware
10:43AM 34.1610 45.1470 150° Southeast 518 596 41,000  Level FlightAware
10:44AM 34.0340 45.2300 152° Southeast 517 595 41,000  Level FlightAware
10:45AM 33.9500 45.2850 151° Southeast 516 594 41,000  Level FlightAware
10:45AM 33.8530 45.3500 151° Southeast 516 594 41,000  Level FlightAware
10:46AM 33.7820 45.3980 151° Southeast 516 594 41,000  Level FlightAware
10:47AM 33.6700 45.4710 152° Southeast 513 590 41,000  Level FlightAware
10:48AM 33.5870 45.5260 151° Southeast 512 589 41,000  Level FlightAware
10:48AM 33.4960 45.5850 152° Southeast 510 587 41,000  Level FlightAware
10:49AM 33.4160 45.6390 151° Southeast 511 588 41,000  Level FlightAware
10:50AM 33.3460 45.6850 151° Southeast 511 588 41,000  Level FlightAware
10:50AM 33.2750 45.7320 151° Southeast 511 588 41,000  Level FlightAware
10:51AM 33.2050 45.7780 151° Southeast 511 588 41,000  Level FlightAware
10:52AM 33.1170 45.8370 151° Southeast 511 588 41,000  Level FlightAware
10:52AM 33.0470 45.8830 151° Southeast 511 588 41,000  Level FlightAware
10:53AM 32.9760 45.9300 151° Southeast 511 588 41,000  Level FlightAware
10:54AM 32.9060 45.9760 151° Southeast 511 588 41,000  Level FlightAware
10:54AM 32.8360 46.0220 151° Southeast 511 588 41,000  Level FlightAware
10:55AM 32.7650 46.0690 151° Southeast 511 588 41,000  Level FlightAware
10:56AM 32.6780 46.1270 151° Southeast 511 588 41,000  Level FlightAware
10:57AM 32.6070 46.1730 151° Southeast 511 588 41,000  Level FlightAware
10:57AM 32.5370 46.2190 151° Southeast 511 588 41,000  Level FlightAware
10:58AM 32.4670 46.2650 151° Southeast 511 588 41,000  Level FlightAware
11:01AM 32.1921 46.4731 147° Southeast  Level Estimated
11:02AM 32.0842 46.5544 147° Southeast  Level Estimated
11:03AM 31.9762 46.6355 147° Southeast  Level Estimated
11:04AM 31.8682 46.7164 148° Southeast  Level Estimated
11:05AM 31.7602 46.7971 148° Southeast  Level Estimated
11:06AM 31.6521 46.8776 148° Southeast  Level Estimated
11:07AM 31.5439 46.9580 148° Southeast  Level Estimated
11:08AM 31.4357 47.0381 148° Southeast  Level Estimated
11:09AM 31.3275 47.1181 148° Southeast  Level Estimated
11:09AM 30.9910 47.3420 148° Southeast 516 594 41,000  Level FlightAware
11:10AM 30.9340 47.4010 138° Southeast 515 593 41,000  Level FlightAware
11:11AM 30.8480 47.4910 138° Southeast 515 593 41,000  Level FlightAware
11:11AM 30.7780 47.5670 137° Southeast 515 593 41,000  Level FlightAware
11:12AM 30.7190 47.6260 139° Southeast 517 595 41,000  Level FlightAware
11:13AM 30.6110 47.7380 138° Southeast 517 595 41,000  Level FlightAware
11:14AM 30.4960 47.8550 139° Southeast 518 596 41,000  Level FlightAware
11:15AM 30.4210 47.9040 151° Southeast 514 592 41,000  Level FlightAware
11:15AM 30.3170 47.9800 148° Southeast 513 590 41,000  Level FlightAware
11:16AM 30.2170 48.0510 148° Southeast 514 592 41,000  Level FlightAware
11:17AM 30.1290 48.1150 148° Southeast 514 592 41,000  Level FlightAware
11:18AM 30.0460 48.1730 149° Southeast 518 596 41,000  Level FlightAware
11:18AM 29.9630 48.2330 148° Southeast 518 596 41,000  Level FlightAware
11:19AM 29.8640 48.3020 149° Southeast 518 596 41,000  Level FlightAware
11:20AM 29.7870 48.3560 149° Southeast 519 597 41,000  Level FlightAware
11:20AM 29.6970 48.4190 149° Southeast 519 597 41,000  Level FlightAware
11:21AM 29.6170 48.4760 148° Southeast 521 600 41,000  Level FlightAware
11:22AM 29.5160 48.5470 149° Southeast 522 601 41,000  Level FlightAware
11:22AM 29.4390 48.6010 149° Southeast 522 601 41,000  Level FlightAware
11:23AM 29.3310 48.6760 149° Southeast 525 604 41,000  Level FlightAware
11:24AM 29.2590 48.7260 149° Southeast 522 601 41,000  Level FlightAware
11:25AM 29.1960 48.7710 148° Southeast 522 601 41,000 -1,200 Level FlightAware
11:25AM 29.0960 48.8390 149° Southeast 521 600 39,500 -1,080 Descending FlightAware
11:26AM 29.0160 48.8960 148° Southeast 521 600 39,500 -960 Level FlightAware
11:27AM 28.8840 48.9860 149° Southeast 511 588 37,900 -1,560 Descending FlightAware
11:28AM 28.7940 49.0480 149° Southeast 511 588 36,900 -1,380 Descending FlightAware
11:28AM 28.7090 49.1070 149° Southeast 513 590 36,000 -1,080 Descending FlightAware
11:29AM 28.6020 49.1800 149° Southeast 510 587 35,200 -900 Descending FlightAware
11:30AM 28.4910 49.2570 149° Southeast 507 583 34,400 -540 Descending FlightAware
11:31AM 28.4250 49.3030 148° Southeast 507 583 34,400  Level FlightAware
11:32AM 28.3410 49.3630 148° Southeast 507 583 34,400 -1,320 Level FlightAware
11:33AM 28.2060 49.4510 150° Southeast 499 574 32,100 -1,800 Descending FlightAware
11:33AM 28.1160 49.5130 149° Southeast 498 573 31,400 -900 Descending FlightAware
11:34AM 28.0640 49.5520 146° Southeast 499 574 31,000 -900 Descending FlightAware
11:35AM 27.9560 49.6410 144° Southeast 496 571 30,200 -540 Descending FlightAware
11:35AM 27.8950 49.6920 144° Southeast 496 571 30,200  Level FlightAware
11:36AM 27.8330 49.7460 142° Southeast 496 571 30,200  Level FlightAware
11:37AM 27.7550 49.8120 143° Southeast 496 571 30,200  Level FlightAware
11:37AM 27.6930 49.8650 143° Southeast 496 571 30,200  Level FlightAware
11:38AM 27.6300 49.9180 143° Southeast 496 571 30,200  Level FlightAware
11:39AM 27.5680 49.9710 143° Southeast 496 571 30,200  Level FlightAware
11:40AM 27.4900 50.0370 143° Southeast 496 571 30,200  Level FlightAware
11:40AM 27.4280 50.0900 143° Southeast 496 571 30,200  Level FlightAware
11:41AM 27.3650 50.1430 143° Southeast 496 571 30,200  Level FlightAware
11:42AM 27.3030 50.1960 143° Southeast 496 571 30,200  Level FlightAware
11:42AM 27.2410 50.2490 143° Southeast 496 571 30,200  Level FlightAware
11:43AM 27.1790 50.3010 143° Southeast 496 571 30,200  Level FlightAware
11:44AM 27.1010 50.3670 143° Southeast 496 571 30,200  Level FlightAware
11:44AM 27.0380 50.4200 143° Southeast 496 571 30,200 -5,100 Level FlightAware
11:47AM 26.7834 50.4912 166° South  Level Estimated
11:47AM 26.7130 50.6140 166° South 9,900  Level FlightAware
11:48AM 26.6760 50.6350 153° Southeast 287 330 9,600 -720 Descending FlightAware
11:48AM 26.6400 50.6540 155° Southeast 283 326 9,200 -1,140 Descending FlightAware
11:49AM 26.5950 50.6790 154° Southeast 274 315 8,300 -900 Descending FlightAware
11:50AM 26.5550 50.7020 153° Southeast 274 315 8,100 -1,140 Descending FlightAware
11:50AM 26.5140 50.7240 154° Southeast 288 331 7,000 -1,140 Descending FlightAware
11:51AM 26.4740 50.7450 155° Southeast 284 327 6,900 -480 Descending FlightAware
11:51AM 26.4550 50.7560 153° Southeast 284 327 6,600 -1,200 Descending FlightAware
11:51AM 26.4270 50.7710 154° Southeast 285 328 6,100 -840 Descending FlightAware
11:52AM 26.4000 50.7860 154° Southeast 285 328 6,000 -120 Descending FlightAware
11:52AM 26.3620 50.8070 154° Southeast 273 314 6,000 60 Level FlightAware
11:53AM 26.3380 50.8200 154° Southeast 254 292 6,100 -360 Climbing FlightAware
11:53AM 26.2870 50.8480 154° Southeast 249 287 5,600 -840 Descending FlightAware
11:54AM 26.2560 50.8650 154° Southeast 235 270 5,100 -780 Descending FlightAware
11:54AM 26.2310 50.8790 153° Southeast 222 255 4,900 -480 Descending FlightAware
11:55AM 26.2170 50.8870 153° Southeast 222 255 4,800 -540 Descending FlightAware
11:55AM 26.1900 50.9020 154° Southeast 221 254 4,500 -600 Descending FlightAware
11:55AM 26.1700 50.9100 160° South 214 246 4,300 -480 Descending FlightAware
11:56AM 26.1520 50.9040 197° South 222 255 4,200 -360 Descending FlightAware
11:56AM 26.1430 50.8910 232° Southwest 216 249 4,100 -420 Descending FlightAware
11:56AM 26.1400 50.8750 258° West 212 244 4,000 -300 Descending FlightAware
11:56AM 26.1400 50.8720 270° West 212 244 4,000 -480 Level FlightAware
11:57AM 26.1480 50.8480 290° West 200 230 3,800 -480 Descending FlightAware
11:57AM 26.1610 50.8230 300° West 189 217 3,600 -660 Descending FlightAware
11:58AM 26.1720 50.8050 304° West 187 215 3,200 -1,140 Descending FlightAware
11:58AM 26.1870 50.7780 302° West 186 214 2,600 -1,080 Descending FlightAware
11:58AM 26.1940 50.7660 303° West 186 214 2,400 -960 Descending FlightAware
11:59AM 26.2080 50.7420 303° West 177 204 1,900 -900 Descending FlightAware
11:59AM 26.2190 50.7240 304° West 159 183 1,600 -780 Descending FlightAware
12:00PM 26.2290 50.7060 302° West 129 148 1,200 -660 Descending FlightAware
12:00PM 26.2360 50.6930 301° West 129 148 1,000 -360 Descending FlightAware
12:01PM 26.2460 50.6750 302° West 129 148 900 -240 Descending FlightAware